createdAt,value
2023-04-22T00:00:30.599Z,8.63
2023-04-22T00:03:16.809Z,8.55
2023-04-22T00:05:45.223Z,8.50
2023-04-22T00:08:14.198Z,8.45
2023-04-22T00:10:42.276Z,8.39
2023-04-22T00:13:10.599Z,8.32
2023-04-22T00:15:39.044Z,8.27
2023-04-22T00:18:07.449Z,8.22
2023-04-22T00:20:36.486Z,8.13
2023-04-22T00:23:04.576Z,8.06
2023-04-22T00:25:33.586Z,8.01
2023-04-22T00:28:01.737Z,7.95
2023-04-22T00:30:29.881Z,7.88
2023-04-22T00:32:57.949Z,7.80
2023-04-22T00:35:26.139Z,7.73
2023-04-22T00:37:54.267Z,7.67
2023-04-22T00:40:22.456Z,7.63
2023-04-22T00:42:51.090Z,7.60
2023-04-22T00:45:20.053Z,7.58
2023-04-22T00:47:49.102Z,7.55
2023-04-22T00:50:17.494Z,7.51
2023-04-22T00:52:45.510Z,7.48
2023-04-22T00:55:13.609Z,7.47
2023-04-22T00:57:42.763Z,7.46
2023-04-22T01:00:12.105Z,7.45
2023-04-22T01:02:40.456Z,7.44
2023-04-22T01:05:09.780Z,7.45
2023-04-22T01:07:37.857Z,7.47
2023-04-22T01:10:06.613Z,7.51
2023-04-22T01:12:34.880Z,7.53
2023-04-22T01:15:05.065Z,7.55
2023-04-22T01:17:33.969Z,7.57
2023-04-22T01:20:04.441Z,7.58
2023-04-22T01:22:37.369Z,7.59
2023-04-22T01:25:05.874Z,7.58
2023-04-22T01:27:33.974Z,7.58
2023-04-22T01:30:02.292Z,7.57
2023-04-22T01:32:31.239Z,7.55
2023-04-22T01:34:59.596Z,7.53
2023-04-22T01:49:44.892Z,7.37
2023-04-22T01:52:13.257Z,7.32
2023-04-22T01:54:41.658Z,7.22
2023-04-22T01:57:14.186Z,7.17
2023-04-22T01:59:42.548Z,7.14
2023-04-22T02:02:10.846Z,7.11
2023-04-22T02:04:39.023Z,7.04
2023-04-22T02:07:07.077Z,6.98
2023-04-22T02:09:35.382Z,6.95
2023-04-22T02:12:03.509Z,6.93
2023-04-22T02:14:31.510Z,6.93
2023-04-22T02:16:59.589Z,6.91
2023-04-22T02:19:27.760Z,6.91
2023-04-22T02:21:56.146Z,6.91
2023-04-22T02:24:24.276Z,6.91
2023-04-22T02:26:52.422Z,6.91
2023-04-22T02:29:20.447Z,6.90
2023-04-22T02:31:48.793Z,6.90
2023-04-22T02:34:16.943Z,6.89
2023-04-22T02:36:44.950Z,6.89
2023-04-22T02:39:13.237Z,6.89
2023-04-22T02:41:41.316Z,6.87
2023-04-22T02:44:09.398Z,6.86
2023-04-22T02:46:37.696Z,6.85
2023-04-22T02:49:05.915Z,6.84
2023-04-22T02:51:34.005Z,6.82
2023-04-22T02:54:02.070Z,6.72
2023-04-22T02:56:30.169Z,6.61
2023-04-22T02:58:58.267Z,6.50
2023-04-22T03:01:26.599Z,6.38
2023-04-22T03:03:54.985Z,6.29
2023-04-22T03:06:23.298Z,6.25
2023-04-22T03:08:51.441Z,6.22
2023-04-22T03:11:19.487Z,6.21
2023-04-22T03:13:47.762Z,6.20
2023-04-22T03:16:17.478Z,6.20
2023-04-22T03:18:45.541Z,6.21
2023-04-22T03:21:13.589Z,6.19
2023-04-22T03:23:41.827Z,6.18
2023-04-22T03:26:09.891Z,6.17
2023-04-22T03:28:37.858Z,6.18
2023-04-22T03:31:06.121Z,6.18
2023-04-22T03:33:34.211Z,6.20
2023-04-22T03:36:02.227Z,6.21
2023-04-22T03:38:30.642Z,6.21
2023-04-22T03:40:58.665Z,6.22
2023-04-22T03:43:26.698Z,6.23
2023-04-22T03:45:54.802Z,6.23
2023-04-22T03:48:22.925Z,6.23
2023-04-22T03:50:51.104Z,6.23
2023-04-22T03:53:19.219Z,6.23
2023-04-22T03:55:47.395Z,6.21
2023-04-22T03:58:15.764Z,6.18
2023-04-22T04:00:44.357Z,6.17
2023-04-22T04:03:12.559Z,6.15
2023-04-22T04:05:40.833Z,6.15
2023-04-22T04:08:09.110Z,6.15
2023-04-22T04:10:38.145Z,6.16
2023-04-22T04:13:06.495Z,6.16
2023-04-22T04:15:36.606Z,6.17
2023-04-22T04:18:04.730Z,6.18
2023-04-22T04:20:32.816Z,6.18
2023-04-22T04:23:00.974Z,6.19
2023-04-22T04:25:37.737Z,6.20
2023-04-22T04:28:09.566Z,6.24
2023-04-22T04:30:38.244Z,6.28
2023-04-22T04:33:07.399Z,6.33
2023-04-22T04:35:38.019Z,6.42
2023-04-22T04:38:06.333Z,6.53
2023-04-22T04:40:35.077Z,6.66
2023-04-22T04:43:04.843Z,6.86
2023-04-22T04:45:33.019Z,7.06
2023-04-22T04:48:02.761Z,7.15
2023-04-22T04:50:31.633Z,7.32
2023-04-22T04:52:59.756Z,7.46
2023-04-22T04:55:27.804Z,7.61
2023-04-22T04:57:55.847Z,7.67
2023-04-22T05:00:24.217Z,7.75
2023-04-22T05:02:52.456Z,7.80
2023-04-22T05:05:20.731Z,7.83
2023-04-22T05:07:48.888Z,7.86
2023-04-22T05:10:17.215Z,7.96
2023-04-22T05:12:47.836Z,8.05
2023-04-22T05:15:16.004Z,8.14
2023-04-22T05:17:44.196Z,8.24
2023-04-22T05:20:12.328Z,8.34
2023-04-22T05:22:44.981Z,8.44
2023-04-22T05:25:13.128Z,8.61
2023-04-22T05:27:42.157Z,8.76
2023-04-22T05:30:11.008Z,8.90
2023-04-22T05:32:39.182Z,9.08
2023-04-22T05:35:07.834Z,9.24
2023-04-22T05:37:36.238Z,9.43
2023-04-22T05:40:04.763Z,9.55
2023-04-22T05:42:32.770Z,9.79
2023-04-22T05:45:00.838Z,9.93
2023-04-22T05:47:30.332Z,10.10
2023-04-22T05:49:58.388Z,10.31
2023-04-22T05:52:26.526Z,10.43
2023-04-22T05:54:54.760Z,10.66
2023-04-22T05:57:22.911Z,11.17
2023-04-22T05:59:51.008Z,11.53
2023-04-22T06:02:19.243Z,11.69
2023-04-22T06:04:47.768Z,11.80
2023-04-22T06:07:16.153Z,11.88
2023-04-22T06:09:44.307Z,12.02
2023-04-22T06:12:12.385Z,12.18
2023-04-22T06:14:43.755Z,12.33
2023-04-22T06:17:11.781Z,12.51
2023-04-22T06:19:40.052Z,12.67
2023-04-22T06:22:08.665Z,12.84
2023-04-22T06:24:36.738Z,12.95
2023-04-22T06:27:04.816Z,13.02
2023-04-22T06:29:33.780Z,13.09
2023-04-22T06:32:03.508Z,13.16
2023-04-22T06:34:32.734Z,13.21
2023-04-22T06:37:00.883Z,13.24
2023-04-22T06:39:29.096Z,13.29
2023-04-22T06:41:57.111Z,13.32
2023-04-22T06:44:25.971Z,13.39
2023-04-22T06:46:55.818Z,13.43
2023-04-22T06:49:25.638Z,13.48
2023-04-22T06:51:53.707Z,13.50
2023-04-22T06:54:21.829Z,13.50
2023-04-22T06:56:49.913Z,13.51
2023-04-22T06:59:18.223Z,13.51
2023-04-22T07:01:49.675Z,13.53
2023-04-22T07:04:17.995Z,13.54
2023-04-22T07:06:46.312Z,13.56
2023-04-22T07:09:14.471Z,13.58
2023-04-22T07:11:42.557Z,13.63
2023-04-22T07:14:10.736Z,13.67
2023-04-22T07:16:39.375Z,13.69
2023-04-22T07:19:07.731Z,13.67
2023-04-22T07:21:35.948Z,13.68
2023-04-22T07:24:04.328Z,13.71
2023-04-22T07:26:34.477Z,13.74
2023-04-22T07:29:02.760Z,13.80
2023-04-22T07:31:30.968Z,13.84
2023-04-22T07:33:59.114Z,13.88
2023-04-22T07:36:27.276Z,13.93
2023-04-22T07:38:55.653Z,14.00
2023-04-22T07:41:23.902Z,14.10
2023-04-22T07:43:52.108Z,14.16
2023-04-22T07:46:20.356Z,14.23
2023-04-22T07:48:48.701Z,14.31
2023-04-22T07:51:17.358Z,14.36
2023-04-22T07:53:45.751Z,14.41
2023-04-22T07:56:13.982Z,14.46
2023-04-22T07:58:42.143Z,14.53
2023-04-22T08:01:10.355Z,14.59
2023-04-22T08:03:38.628Z,14.66
2023-04-22T08:06:07.230Z,14.75
2023-04-22T08:08:35.382Z,14.83
2023-04-22T08:14:04.148Z,14.97
2023-04-22T08:16:32.437Z,15.02
2023-04-22T08:19:00.538Z,15.07
2023-04-22T08:21:28.702Z,15.12
2023-04-22T08:23:57.744Z,15.17
2023-04-22T08:26:26.367Z,15.23
2023-04-22T08:28:54.879Z,15.26
2023-04-22T08:31:23.092Z,15.30
2023-04-22T08:33:51.485Z,15.37
2023-04-22T08:36:22.984Z,15.42
2023-04-22T08:38:51.369Z,15.50
2023-04-22T08:41:19.480Z,15.57
2023-04-22T08:43:48.119Z,15.67
2023-04-22T08:46:20.273Z,15.73
2023-04-22T08:48:48.974Z,15.81
2023-04-22T08:51:22.897Z,15.88
2023-04-22T08:53:51.172Z,15.95
2023-04-22T08:56:20.864Z,16.01
2023-04-22T08:58:49.731Z,16.08
2023-04-22T09:01:18.764Z,16.13
2023-04-22T09:03:49.370Z,16.17
2023-04-22T09:06:20.060Z,16.16
2023-04-22T09:08:48.392Z,16.22
2023-04-22T09:11:17.885Z,16.28
2023-04-22T09:13:47.677Z,16.35
2023-04-22T09:16:15.933Z,16.39
2023-04-22T09:18:46.006Z,16.46
2023-04-22T09:21:14.377Z,16.53
2023-04-22T09:23:53.352Z,16.58
2023-04-22T09:26:23.616Z,16.62
2023-04-22T09:29:01.186Z,16.67
2023-04-22T09:31:29.398Z,16.70
2023-04-22T09:34:00.799Z,16.72
2023-04-22T09:36:30.439Z,16.76
2023-04-22T09:39:00.590Z,16.79
2023-04-22T09:41:34.382Z,16.79
2023-04-22T09:44:04.027Z,16.79
2023-04-22T09:46:34.021Z,16.81
2023-04-22T09:49:02.742Z,16.87
2023-04-22T09:51:30.921Z,16.94
2023-04-22T09:54:09.864Z,17.01
2023-04-22T09:56:53.796Z,17.10
2023-04-22T09:59:24.539Z,17.18
2023-04-22T10:01:55.153Z,17.28
2023-04-22T10:04:25.474Z,17.36
2023-04-22T10:06:54.586Z,17.41
2023-04-22T10:09:25.427Z,17.44
2023-04-22T10:11:55.626Z,17.46
2023-04-22T10:14:24.612Z,17.47
2023-04-22T10:16:57.139Z,17.51
2023-04-22T10:19:27.070Z,17.58
2023-04-22T10:22:01.424Z,17.65
2023-04-22T10:24:35.608Z,17.73
2023-04-22T10:27:08.674Z,17.81
2023-04-22T10:29:42.932Z,17.87
2023-04-22T10:32:11.744Z,17.89
2023-04-22T10:34:39.982Z,17.92
2023-04-22T10:37:11.792Z,18.00
2023-04-22T10:39:43.016Z,18.10
2023-04-22T10:42:12.890Z,18.20
2023-04-22T10:44:55.191Z,18.26
2023-04-22T10:47:28.843Z,18.34
2023-04-22T10:50:27.439Z,18.40
2023-04-22T10:53:03.212Z,18.48
2023-04-22T10:56:16.250Z,18.58
2023-04-22T10:58:52.484Z,18.65
2023-04-22T11:01:21.597Z,18.69
2023-04-22T11:03:52.030Z,18.71
2023-04-22T11:06:27.927Z,18.74
2023-04-22T11:09:14.187Z,18.82
2023-04-22T11:11:42.308Z,18.93
2023-04-22T11:14:11.483Z,19.02
2023-04-22T11:16:39.719Z,19.09
2023-04-22T11:19:08.278Z,19.16
2023-04-22T11:21:36.968Z,19.23
2023-04-22T11:24:06.332Z,19.25
2023-04-22T11:26:35.974Z,19.29
2023-04-22T11:29:04.138Z,19.36
2023-04-22T11:31:32.585Z,19.37
2023-04-22T11:34:00.725Z,19.38
2023-04-22T11:36:28.979Z,19.44
2023-04-22T11:38:57.383Z,19.49
2023-04-22T11:41:25.523Z,19.39
2023-04-22T11:43:55.050Z,19.37
2023-04-22T11:46:31.461Z,19.45
2023-04-22T11:49:13.732Z,19.52
2023-04-22T11:51:57.692Z,19.59
2023-04-22T11:54:33.723Z,19.63
2023-04-22T11:57:15.617Z,19.61
2023-04-22T11:59:44.204Z,19.60
2023-04-22T12:02:12.506Z,19.57
2023-04-22T12:04:41.593Z,19.52
2023-04-22T12:07:09.663Z,19.45
2023-04-22T12:09:39.718Z,19.41
2023-04-22T12:12:08.198Z,19.43
2023-04-22T12:14:36.645Z,19.47
2023-04-22T12:17:05.920Z,19.56
2023-04-22T12:19:34.009Z,19.60
2023-04-22T12:22:02.883Z,19.68
2023-04-22T12:24:31.237Z,19.75
2023-04-22T12:26:59.349Z,19.86
2023-04-22T12:29:32.829Z,19.98
2023-04-22T12:32:01.190Z,20.07
2023-04-22T12:34:29.399Z,20.18
2023-04-22T12:36:59.187Z,20.27
2023-04-22T12:39:27.247Z,20.33
2023-04-22T12:41:55.459Z,20.35
2023-04-22T12:44:25.142Z,20.38
2023-04-22T12:46:53.766Z,20.45
2023-04-22T12:49:21.956Z,20.54
2023-04-22T12:51:50.158Z,20.60
2023-04-22T12:54:23.893Z,20.66
2023-04-22T12:57:16.148Z,20.73
2023-04-22T12:59:47.473Z,20.81
2023-04-22T13:02:16.095Z,20.85
2023-04-22T13:04:44.500Z,20.88
2023-04-22T13:07:12.890Z,20.89
2023-04-22T13:09:47.135Z,20.94
2023-04-22T13:12:24.115Z,20.96
2023-04-22T13:14:52.460Z,20.97
2023-04-22T13:17:21.914Z,20.87
2023-04-22T13:19:51.150Z,20.80
2023-04-22T13:22:19.540Z,20.78
2023-04-22T13:24:47.798Z,20.81
2023-04-22T13:27:18.801Z,20.84
2023-04-22T13:29:48.289Z,20.90
2023-04-22T13:32:16.545Z,20.95
2023-04-22T13:34:46.948Z,21.00
2023-04-22T13:37:16.521Z,21.05
2023-04-22T13:39:46.321Z,21.09
2023-04-22T13:42:17.366Z,21.12
2023-04-22T13:44:45.902Z,21.18
2023-04-22T13:47:14.039Z,21.19
2023-04-22T13:49:42.313Z,21.21
2023-04-22T13:52:11.175Z,21.25
2023-04-22T13:54:39.862Z,21.28
2023-04-22T13:57:08.882Z,21.30
2023-04-22T13:59:38.929Z,21.33
2023-04-22T14:02:17.984Z,21.35
2023-04-22T14:04:47.499Z,21.38
2023-04-22T14:07:17.075Z,21.36
2023-04-22T14:10:08.013Z,21.38
2023-04-22T14:12:37.250Z,21.38
2023-04-22T14:15:07.312Z,21.37
2023-04-22T14:17:36.727Z,21.37
2023-04-22T14:20:08.668Z,21.38
2023-04-22T14:22:38.148Z,21.38
2023-04-22T14:25:13.307Z,21.38
2023-04-22T14:27:43.157Z,21.38
2023-04-22T14:30:12.263Z,21.36
2023-04-22T14:33:09.284Z,21.35
2023-04-22T14:35:38.954Z,21.32
2023-04-22T14:38:11.980Z,21.30
2023-04-22T14:41:00.407Z,21.28
2023-04-22T14:43:28.676Z,21.27
2023-04-22T14:46:01.936Z,21.26
2023-04-22T14:48:32.425Z,21.24
2023-04-22T14:51:01.614Z,21.21
2023-04-22T14:53:32.972Z,21.20
2023-04-22T14:56:01.553Z,21.18
2023-04-22T14:58:31.963Z,21.15
2023-04-22T15:01:00.576Z,21.12
2023-04-22T15:03:28.944Z,21.11
2023-04-22T15:05:58.079Z,21.11
2023-04-22T15:08:26.616Z,21.09
2023-04-22T15:10:54.785Z,21.06
2023-04-22T15:13:27.315Z,21.03
2023-04-22T15:15:55.713Z,21.01
2023-04-22T15:18:25.065Z,20.98
2023-04-22T15:20:53.159Z,20.93
2023-04-22T15:23:21.352Z,20.89
2023-04-22T15:25:49.501Z,20.87
2023-04-22T15:28:17.772Z,20.84
2023-04-22T15:30:46.155Z,20.82
2023-04-22T15:33:14.713Z,20.79
2023-04-22T15:35:45.604Z,20.75
2023-04-22T15:38:14.222Z,20.71
2023-04-22T15:40:42.627Z,20.65
2023-04-22T15:43:11.064Z,20.62
2023-04-22T15:45:39.254Z,20.57
2023-04-22T15:48:08.733Z,20.54
2023-04-22T15:50:38.864Z,20.51
2023-04-22T15:53:08.480Z,20.48
2023-04-22T15:55:38.207Z,20.42
2023-04-22T15:58:06.403Z,20.37
2023-04-22T16:00:34.738Z,20.33
2023-04-22T16:03:03.213Z,20.29
2023-04-22T16:05:35.564Z,20.22
2023-04-22T16:08:03.835Z,20.15
2023-04-22T16:10:31.950Z,20.07
2023-04-22T16:15:53.284Z,19.92
2023-04-22T16:18:27.707Z,19.87
2023-04-22T16:21:00.073Z,19.81
2023-04-22T16:23:28.139Z,19.74
2023-04-22T16:25:56.434Z,19.66
2023-04-22T16:28:25.455Z,19.61
2023-04-22T16:30:53.588Z,19.57
2023-04-22T16:33:34.010Z,19.52
2023-04-22T16:36:02.344Z,19.45
2023-04-22T16:38:30.672Z,19.39
2023-04-22T16:40:58.757Z,19.34
2023-04-22T16:43:26.867Z,19.28
2023-04-22T16:45:54.997Z,19.22
2023-04-22T16:48:23.101Z,19.16
2023-04-22T16:50:52.732Z,19.10
2023-04-22T16:53:20.994Z,19.05
2023-04-22T16:55:49.098Z,18.99
2023-04-22T16:58:17.182Z,18.93
2023-04-22T17:04:24.496Z,18.78
2023-04-22T17:06:53.049Z,18.71
2023-04-22T17:09:21.269Z,18.66
2023-04-22T17:11:49.409Z,18.61
2023-04-22T17:14:17.552Z,18.53
2023-04-22T17:16:45.679Z,18.47
2023-04-22T17:19:13.795Z,18.39
2023-04-22T17:21:41.913Z,18.34
2023-04-22T17:24:10.098Z,18.29
2023-04-22T17:26:39.737Z,18.24
2023-04-22T17:29:07.968Z,18.19
2023-04-22T17:31:36.188Z,18.13
2023-04-22T17:34:04.374Z,18.07
2023-04-22T17:36:32.491Z,18.01
2023-04-22T17:39:00.624Z,17.94
2023-04-22T17:41:28.809Z,17.87
2023-04-22T17:43:59.054Z,17.80
2023-04-22T17:46:27.415Z,17.73
2023-04-22T17:48:55.566Z,17.66
2023-04-22T17:51:23.695Z,17.59
2023-04-22T17:53:53.116Z,17.52
2023-04-22T17:56:21.762Z,17.44
2023-04-22T17:58:49.864Z,17.36
2023-04-22T18:01:18.109Z,17.27
2023-04-22T18:03:46.360Z,17.21
2023-04-22T18:06:14.865Z,17.13
2023-04-22T18:08:42.899Z,17.05
2023-04-22T18:11:11.342Z,16.97
2023-04-22T18:13:39.624Z,16.87
2023-04-22T18:16:08.098Z,16.76
2023-04-22T18:18:36.497Z,16.67
2023-04-22T18:21:04.693Z,16.56
2023-04-22T18:23:32.845Z,16.45
2023-04-22T18:26:01.221Z,16.35
2023-04-22T18:28:29.387Z,16.24
2023-04-22T18:30:57.525Z,16.15
2023-04-22T18:33:26.280Z,16.08
2023-04-22T18:35:54.406Z,15.99
2023-04-22T18:38:22.884Z,15.91
2023-04-22T18:40:51.008Z,15.82
2023-04-22T18:43:19.256Z,15.73
2023-04-22T18:49:49.149Z,15.51
2023-04-22T18:52:20.391Z,15.43
2023-04-22T18:54:56.211Z,15.37
2023-04-22T18:59:08.048Z,15.30
2023-04-22T19:01:28.064Z,15.17
2023-04-22T19:03:56.279Z,15.11
2023-04-22T19:06:24.555Z,15.02
2023-04-22T19:08:53.122Z,14.97
2023-04-22T19:11:21.383Z,14.91
2023-04-22T19:13:49.557Z,14.85
2023-04-22T19:16:17.785Z,14.80
2023-04-22T19:18:46.529Z,14.74
2023-04-22T19:21:15.663Z,14.68
2023-04-22T19:23:43.796Z,14.63
2023-04-22T19:26:14.458Z,14.59
2023-04-22T19:28:47.658Z,14.54
2023-04-22T19:31:19.745Z,14.49
2023-04-22T19:33:56.335Z,14.45
2023-04-22T19:36:24.765Z,14.40
2023-04-22T19:38:54.603Z,14.35
2023-04-22T19:41:24.169Z,14.30
2023-04-22T19:43:56.714Z,14.25
2023-04-22T19:46:26.001Z,14.20
2023-04-22T19:48:55.490Z,14.15
2023-04-22T19:51:24.522Z,14.10
2023-04-22T19:53:54.529Z,14.05
2023-04-22T19:56:22.967Z,14.01
2023-04-22T19:58:52.327Z,13.97
2023-04-22T20:01:21.323Z,13.92
2023-04-22T20:03:50.137Z,13.88
2023-04-22T20:06:18.387Z,13.82
2023-04-22T20:08:48.081Z,13.77
2023-04-22T20:11:16.753Z,13.72
2023-04-22T20:13:47.902Z,13.64
2023-04-22T20:16:16.639Z,13.58
2023-04-22T20:18:46.487Z,13.51
2023-04-22T20:21:16.749Z,13.46
2023-04-22T20:23:45.937Z,13.40
2023-04-22T20:26:20.895Z,13.35
2023-04-22T20:28:52.231Z,13.30
2023-04-22T20:31:23.442Z,13.23
2023-04-22T20:33:52.752Z,13.15
2023-04-22T20:36:22.687Z,13.08
2023-04-22T20:38:54.941Z,12.98
2023-04-22T20:41:24.775Z,12.90
2023-04-22T20:43:53.460Z,12.84
2023-04-22T20:46:23.801Z,12.79
2023-04-22T20:48:52.534Z,12.74
2023-04-22T20:51:20.799Z,12.69
2023-04-22T20:53:50.670Z,12.64
2023-04-22T20:56:21.562Z,12.60
2023-04-22T20:58:50.031Z,12.54
2023-04-22T21:01:21.760Z,12.48
2023-04-22T21:04:01.279Z,12.41
2023-04-22T21:06:48.817Z,12.33
2023-04-22T21:09:35.132Z,12.24
2023-04-22T21:12:18.476Z,12.16
2023-04-22T21:14:49.547Z,12.12
2023-04-22T21:17:31.024Z,12.08
2023-04-22T21:19:59.694Z,12.03
2023-04-22T21:22:29.888Z,11.99
2023-04-22T21:27:27.691Z,11.88
2023-04-22T21:29:57.108Z,11.82
2023-04-22T21:32:25.968Z,11.77
2023-04-22T21:34:54.271Z,11.71
2023-04-22T21:37:22.547Z,11.66
2023-04-22T21:39:50.726Z,11.60
2023-04-22T21:42:19.027Z,11.55
2023-04-22T21:44:49.944Z,11.51
2023-04-22T21:47:18.264Z,11.46
2023-04-22T21:49:47.212Z,11.42
2023-04-22T21:52:16.384Z,11.37
2023-04-22T21:54:44.521Z,11.33
2023-04-22T21:57:12.831Z,11.28
2023-04-22T21:59:40.933Z,11.23
2023-04-22T22:02:09.103Z,11.18
2023-04-22T22:04:37.550Z,11.14
2023-04-22T22:07:05.903Z,11.11
2023-04-22T22:09:34.023Z,11.07
2023-04-22T22:12:02.799Z,11.03
2023-04-22T22:14:31.149Z,10.99
2023-04-22T22:16:59.784Z,10.96
2023-04-22T22:19:28.489Z,10.94
2023-04-22T22:21:56.956Z,10.93
2023-04-22T22:24:25.525Z,10.91
2023-04-22T22:26:58.147Z,10.90
2023-04-22T22:29:28.770Z,10.88
2023-04-22T22:31:56.889Z,10.87
2023-04-22T22:34:29.702Z,10.87
2023-04-22T22:37:00.487Z,10.86
2023-04-22T22:39:28.616Z,10.85
2023-04-22T22:41:58.342Z,10.84
2023-04-22T22:44:27.503Z,10.83
2023-04-22T22:46:55.935Z,10.80
2023-04-22T22:49:24.589Z,10.80
2023-04-22T22:51:53.077Z,10.79
2023-04-22T22:54:21.303Z,10.80
2023-04-22T22:56:49.541Z,10.79
2023-04-22T22:59:17.715Z,10.79
2023-04-22T23:01:46.120Z,10.78
2023-04-22T23:04:15.936Z,10.78
2023-04-22T23:06:44.345Z,10.78
2023-04-22T23:09:12.408Z,10.78
2023-04-22T23:11:40.691Z,10.79
2023-04-22T23:14:09.740Z,10.79
2023-04-22T23:16:40.288Z,10.79
2023-04-22T23:19:08.592Z,10.75
2023-04-22T23:21:38.272Z,10.78
2023-04-22T23:24:08.667Z,10.79
2023-04-22T23:26:37.314Z,10.78
2023-04-22T23:29:06.748Z,10.78
2023-04-22T23:31:35.841Z,10.79
2023-04-22T23:34:05.878Z,10.78
2023-04-22T23:36:39.804Z,10.78
2023-04-22T23:39:09.821Z,10.77
2023-04-22T23:41:39.904Z,10.77
2023-04-22T23:44:13.347Z,10.77
2023-04-22T23:46:41.960Z,10.78
2023-04-22T23:49:15.594Z,10.78
2023-04-22T23:51:51.744Z,10.78
2023-04-22T23:54:22.152Z,10.78
2023-04-22T23:56:50.740Z,10.76
2023-04-22T23:59:22.433Z,10.77
